createdAt,value
2023-05-04T00:01:11.655Z,101021.31
2023-05-04T00:04:14.530Z,101019.31
2023-05-04T00:07:17.348Z,101016.16
2023-05-04T00:10:19.786Z,101011.47
2023-05-04T00:13:22.278Z,101000.88
2023-05-04T00:16:24.905Z,101010.69
2023-05-04T00:19:27.266Z,101011.09
2023-05-04T00:22:29.687Z,101002.00
2023-05-04T00:25:32.201Z,101002.78
2023-05-04T00:28:34.530Z,101024.03
2023-05-04T00:31:36.997Z,101006.31
2023-05-04T00:34:39.387Z,101000.47
2023-05-04T00:37:43.796Z,101001.63
2023-05-04T00:40:46.206Z,101014.63
2023-05-04T00:43:48.750Z,101006.31
2023-05-04T00:46:52.814Z,100995.31
2023-05-04T00:49:55.412Z,100998.84
2023-05-04T00:52:59.305Z,101017.72
2023-05-04T00:56:02.482Z,101014.94
2023-05-04T00:59:05.765Z,101001.22
2023-05-04T01:02:08.121Z,101001.16
2023-05-04T01:05:12.521Z,101015.72
2023-05-04T01:08:17.955Z,101000.78
2023-05-04T01:11:30.952Z,101017.69
2023-05-04T01:14:34.789Z,101011.41
2023-05-04T01:17:37.146Z,101005.84
2023-05-04T01:20:39.493Z,101012.56
2023-05-04T01:23:41.869Z,101009.78
2023-05-04T01:26:46.441Z,101010.16
2023-05-04T01:29:52.651Z,101001.22
2023-05-04T01:32:56.808Z,101013.31
2023-05-04T01:35:59.489Z,101001.94
2023-05-04T01:39:03.875Z,101001.91
2023-05-04T01:42:08.896Z,101001.16
2023-05-04T01:45:11.816Z,100981.78
2023-05-04T01:48:14.123Z,101003.53
2023-05-04T01:51:16.513Z,100994.53
2023-05-04T01:54:18.835Z,100985.78
2023-05-04T01:57:21.182Z,100991.38
2023-05-04T02:00:23.684Z,100985.06
2023-05-04T02:03:26.406Z,100992.16
2023-05-04T02:06:28.817Z,100976.75
2023-05-04T02:09:33.130Z,100975.59
2023-05-04T02:12:35.666Z,100977.56
2023-05-04T02:15:38.084Z,100983.84
2023-05-04T02:18:40.474Z,100984.59
2023-05-04T02:21:42.825Z,100989.38
2023-05-04T02:24:45.255Z,100977.09
2023-05-04T02:27:47.629Z,100988.56
2023-05-04T02:30:50.009Z,100983.44
2023-05-04T02:33:52.758Z,100989.31
2023-05-04T02:36:55.131Z,100981.84
2023-05-04T02:39:57.527Z,100974.78
2023-05-04T02:42:59.869Z,100979.53
2023-05-04T02:46:02.696Z,100984.22
2023-05-04T02:49:05.510Z,100983.44
2023-05-04T02:52:08.032Z,100986.16
2023-05-04T02:55:10.562Z,100976.28
2023-05-04T02:58:12.913Z,100994.75
2023-05-04T03:01:15.360Z,100975.44
2023-05-04T03:04:17.835Z,100998.63
2023-05-04T03:07:20.241Z,100980.13
2023-05-04T03:10:22.634Z,100991.97
2023-05-04T03:13:24.989Z,100997.44
2023-05-04T03:16:28.095Z,100998.59
2023-05-04T03:19:30.773Z,100993.44
2023-05-04T03:22:33.290Z,101006.00
2023-05-04T03:25:36.951Z,101013.81
2023-05-04T03:28:39.443Z,101006.69
2023-05-04T03:31:42.165Z,101007.47
2023-05-04T03:34:47.068Z,101009.44
2023-05-04T03:37:51.086Z,101016.53
2023-05-04T03:40:53.428Z,101024.31
2023-05-04T03:43:55.821Z,101017.69
2023-05-04T03:46:58.140Z,101025.13
2023-05-04T03:50:00.525Z,101029.81
2023-05-04T03:53:02.946Z,101020.44
2023-05-04T03:56:05.557Z,101031.38
2023-05-04T03:59:07.934Z,101030.59
2023-05-04T04:02:10.343Z,101032.59
2023-05-04T04:05:12.788Z,101014.91
2023-05-04T04:08:15.633Z,101033.75
2023-05-04T04:11:18.039Z,101020.31
2023-05-04T04:14:20.453Z,101019.53
2023-05-04T04:17:22.796Z,101024.31
2023-05-04T04:20:25.207Z,101015.63
2023-05-04T04:23:27.566Z,101035.34
2023-05-04T04:26:30.264Z,101023.16
2023-05-04T04:29:35.488Z,101016.06
2023-05-04T04:32:38.071Z,101027.53
2023-05-04T04:35:41.721Z,101022.31
2023-05-04T04:38:44.704Z,101036.53
2023-05-04T04:41:47.098Z,101037.31
2023-05-04T04:44:49.948Z,101038.06
2023-05-04T04:47:52.472Z,101021.13
2023-05-04T04:50:55.112Z,101031.44
2023-05-04T04:53:57.507Z,101043.22
2023-05-04T04:56:59.999Z,101033.81
2023-05-04T05:00:05.152Z,101033.00
2023-05-04T05:03:07.775Z,101019.59
2023-05-04T05:06:11.428Z,101022.91
2023-05-04T05:09:14.358Z,101048.06
2023-05-04T05:12:17.045Z,101041.38
2023-05-04T05:15:19.549Z,101036.28
2023-05-04T05:18:22.261Z,101029.22
2023-05-04T05:21:24.628Z,101038.00
2023-05-04T05:24:26.995Z,101054.22
2023-05-04T05:27:29.448Z,101041.28
2023-05-04T05:30:32.299Z,101044.47
2023-05-04T05:33:34.711Z,101021.63
2023-05-04T05:36:37.077Z,101028.97
2023-05-04T05:39:39.503Z,101040.06
2023-05-04T05:42:45.171Z,101035.81
2023-05-04T05:45:47.499Z,101032.72
2023-05-04T05:48:49.883Z,101049.31
2023-05-04T05:51:52.746Z,101010.75
2023-05-04T05:54:55.119Z,100998.53
2023-05-04T05:57:57.555Z,101032.91
2023-05-04T06:01:00.265Z,101044.47
2023-05-04T06:04:03.358Z,101023.59
2023-05-04T06:07:06.183Z,101063.47
2023-05-04T06:10:11.591Z,101059.16
2023-05-04T06:13:14.096Z,101062.31
2023-05-04T06:16:16.637Z,101053.59
2023-05-04T06:19:39.787Z,101065.84
2023-05-04T06:22:42.184Z,101053.25
2023-05-04T06:25:44.598Z,101092.75
2023-05-04T06:28:47.027Z,101086.09
2023-05-04T06:31:49.500Z,101087.66
2023-05-04T06:34:55.793Z,101083.91
2023-05-04T06:37:58.455Z,101089.88
2023-05-04T06:41:01.038Z,101094.34
2023-05-04T06:44:06.214Z,101099.97
2023-05-04T06:47:09.166Z,101084.38
2023-05-04T06:50:12.294Z,101097.88
2023-05-04T06:53:14.700Z,101097.53
2023-05-04T06:56:18.646Z,101055.53
2023-05-04T06:59:21.659Z,101059.16
2023-05-04T07:02:24.238Z,101079.78
2023-05-04T07:05:26.897Z,101083.38
2023-05-04T07:08:29.354Z,101059.41
2023-05-04T07:11:32.027Z,101042.09
2023-05-04T07:14:34.538Z,101068.50
2023-05-04T07:17:40.389Z,101042.13
2023-05-04T07:20:44.458Z,101046.84
2023-05-04T07:23:46.891Z,101047.59
2023-05-04T07:26:49.312Z,101066.47
2023-05-04T07:29:51.748Z,101039.75
2023-05-04T07:32:54.196Z,101069.66
2023-05-04T07:35:58.588Z,101072.03
2023-05-04T07:39:01.087Z,101090.53
2023-05-04T07:42:04.212Z,101062.16
2023-05-04T07:45:08.731Z,101059.06
2023-05-04T07:48:11.516Z,101081.44
2023-05-04T07:51:14.925Z,101081.88
2023-05-04T07:54:17.503Z,101087.78
2023-05-04T07:57:20.574Z,101042.91
2023-05-04T08:00:23.349Z,101063.34
2023-05-04T08:03:25.706Z,101086.59
2023-05-04T08:06:28.136Z,101076.72
2023-05-04T08:09:38.666Z,101063.75
2023-05-04T08:12:55.051Z,101068.06
2023-05-04T08:16:01.703Z,101066.47
2023-05-04T08:19:04.266Z,101090.88
2023-05-04T08:22:06.651Z,101097.56
2023-05-04T08:25:09.777Z,101087.72
2023-05-04T08:28:12.214Z,101084.56
2023-05-04T08:31:14.706Z,101102.25
2023-05-04T08:34:20.167Z,101066.44
2023-05-04T08:37:22.663Z,101101.84
2023-05-04T08:40:25.045Z,101054.16
2023-05-04T08:43:28.336Z,101062.81
2023-05-04T08:46:32.891Z,101077.00
2023-05-04T08:49:35.702Z,101101.81
2023-05-04T08:52:38.931Z,101087.63
2023-05-04T08:55:43.127Z,101108.47
2023-05-04T08:58:51.033Z,101091.94
2023-05-04T09:01:59.948Z,101092.75
2023-05-04T09:05:02.608Z,101100.22
2023-05-04T09:08:05.769Z,101050.19
2023-05-04T09:11:08.263Z,101054.50
2023-05-04T09:14:10.667Z,101087.63
2023-05-04T09:17:25.778Z,101049.78
2023-05-04T09:20:31.918Z,101040.72
2023-05-04T09:23:45.336Z,101078.91
2023-05-04T09:26:47.817Z,101046.59
2023-05-04T09:29:54.208Z,101046.59
2023-05-04T09:32:57.318Z,101019.84
2023-05-04T09:36:12.170Z,101033.22
2023-05-04T09:39:15.771Z,101033.97
2023-05-04T09:42:18.923Z,101059.16
2023-05-04T09:45:21.371Z,101018.22
2023-05-04T09:48:26.934Z,101080.00
2023-05-04T09:51:29.674Z,101058.41
2023-05-04T09:54:35.312Z,101044.63
2023-05-04T09:57:38.027Z,101043.44
2023-05-04T10:00:40.547Z,101028.13
2023-05-04T10:03:44.010Z,101019.88
2023-05-04T10:06:46.705Z,101025.41
2023-05-04T10:09:49.295Z,101030.88
2023-05-04T10:12:52.779Z,100987.63
2023-05-04T10:16:01.422Z,101052.13
2023-05-04T10:19:19.621Z,101043.47
2023-05-04T10:22:48.213Z,101039.94
2023-05-04T10:26:32.676Z,101032.09
2023-05-04T10:29:35.525Z,101011.66
2023-05-04T10:32:40.157Z,101023.84
2023-05-04T10:35:55.536Z,101022.69
2023-05-04T10:38:59.073Z,101023.06
2023-05-04T10:42:04.782Z,101014.81
2023-05-04T10:45:09.602Z,100997.50
2023-05-04T10:48:12.685Z,100942.44
2023-05-04T10:51:20.157Z,101005.38
2023-05-04T10:54:22.593Z,100986.50
2023-05-04T10:57:27.959Z,100994.38
2023-05-04T11:00:41.309Z,100986.50
2023-05-04T11:03:44.046Z,100965.28
2023-05-04T11:07:06.342Z,100972.75
2023-05-04T11:10:20.818Z,100990.84
2023-05-04T11:13:23.764Z,100972.34
2023-05-04T11:16:27.546Z,100968.41
2023-05-04T11:19:30.253Z,100960.53
2023-05-04T11:22:32.776Z,100971.97
2023-05-04T11:25:36.866Z,100960.94
2023-05-04T11:28:39.659Z,100969.22
2023-05-04T11:31:42.538Z,100964.91
2023-05-04T11:34:46.717Z,100948.41
2023-05-04T11:37:50.605Z,100915.34
2023-05-04T11:40:52.990Z,100938.16
2023-05-04T11:43:55.585Z,100935.41
2023-05-04T11:46:58.059Z,100937.00
2023-05-04T11:50:00.508Z,100938.97
2023-05-04T11:53:12.060Z,100954.69
2023-05-04T11:56:14.424Z,100939.75
2023-05-04T11:59:17.029Z,100909.06
2023-05-04T12:02:20.533Z,100914.97
2023-05-04T12:05:22.949Z,100952.75
2023-05-04T12:08:34.021Z,100951.56
2023-05-04T12:11:38.418Z,100953.16
2023-05-04T12:15:07.768Z,100950.78
2023-05-04T12:18:21.993Z,100947.66
2023-05-04T12:21:24.349Z,100921.69
2023-05-04T12:24:27.920Z,100910.66
2023-05-04T12:27:30.431Z,100901.63
2023-05-04T12:30:32.779Z,100910.31
2023-05-04T12:33:36.361Z,100920.94
2023-05-04T12:36:39.137Z,100908.34
2023-05-04T12:39:41.984Z,100928.00
2023-05-04T12:42:44.802Z,100917.38
2023-05-04T12:45:47.162Z,100924.47
2023-05-04T12:48:49.946Z,100915.41
2023-05-04T12:51:52.448Z,100911.50
2023-05-04T12:54:54.845Z,100895.34
2023-05-04T12:57:58.222Z,100909.53
2023-05-04T13:01:00.723Z,100885.16
2023-05-04T13:04:03.418Z,100902.88
2023-05-04T13:07:05.950Z,100876.53
2023-05-04T13:10:08.816Z,100890.69
2023-05-04T13:13:11.247Z,100874.19
2023-05-04T13:16:13.960Z,100880.88
2023-05-04T13:19:16.797Z,100848.66
2023-05-04T13:22:19.211Z,100860.81
2023-05-04T13:25:22.297Z,100891.50
2023-05-04T13:28:24.683Z,100864.38
2023-05-04T13:31:27.148Z,100852.19
2023-05-04T13:34:29.598Z,100867.09
2023-05-04T13:37:32.073Z,100851.41
2023-05-04T13:40:34.519Z,100848.25
2023-05-04T13:43:37.655Z,100862.41
2023-05-04T13:46:40.153Z,100844.72
2023-05-04T13:49:42.771Z,100840.81
2023-05-04T13:52:45.312Z,100848.28
2023-05-04T13:55:47.627Z,100862.41
2023-05-04T13:58:50.049Z,100842.34
2023-05-04T14:01:52.706Z,100862.81
2023-05-04T14:04:55.221Z,100858.09
2023-05-04T14:07:57.644Z,100846.31
2023-05-04T14:11:00.383Z,100835.69
2023-05-04T14:14:03.092Z,100843.56
2023-05-04T14:17:05.472Z,100839.63
2023-05-04T14:20:08.897Z,100838.03
2023-05-04T14:23:11.281Z,100841.19
2023-05-04T14:26:13.737Z,100842.75
2023-05-04T14:29:16.060Z,100844.34
2023-05-04T14:32:19.432Z,100833.72
2023-05-04T14:35:21.961Z,100821.16
2023-05-04T14:38:24.331Z,100805.41
2023-05-04T14:41:27.143Z,100825.88
2023-05-04T14:44:30.244Z,100830.97
2023-05-04T14:47:33.791Z,100819.94
2023-05-04T14:50:36.183Z,100836.88
2023-05-04T14:53:39.715Z,100814.44
2023-05-04T14:56:42.237Z,100826.63
2023-05-04T14:59:44.629Z,100816.41
2023-05-04T15:02:47.350Z,100822.31
2023-05-04T15:05:49.969Z,100820.38
2023-05-04T15:08:52.659Z,100805.41
2023-05-04T15:11:55.094Z,100795.94
2023-05-04T15:14:57.413Z,100817.97
2023-05-04T15:17:59.914Z,100802.63
2023-05-04T15:21:02.354Z,100804.59
2023-05-04T15:24:05.196Z,100766.84
2023-05-04T15:27:07.584Z,100788.06
2023-05-04T15:30:11.512Z,100779.81
2023-05-04T15:33:13.941Z,100819.13
2023-05-04T15:36:16.362Z,100803.78
2023-05-04T15:39:18.793Z,100783.38
2023-05-04T15:42:21.196Z,100779.84
2023-05-04T15:45:23.685Z,100770.81
2023-05-04T15:48:27.674Z,100773.94
2023-05-04T15:51:32.200Z,100765.69
2023-05-04T15:54:34.596Z,100765.28
2023-05-04T15:57:37.186Z,100799.09
2023-05-04T16:00:39.718Z,100783.75
2023-05-04T16:03:43.227Z,100812.81
2023-05-04T16:06:46.158Z,100806.94
2023-05-04T16:09:48.487Z,100782.59
2023-05-04T16:12:50.961Z,100777.84
2023-05-04T16:15:53.599Z,100815.56
2023-05-04T16:18:55.991Z,100790.03
2023-05-04T16:21:58.359Z,100777.06
2023-05-04T16:25:01.997Z,100786.47
2023-05-04T16:28:04.559Z,100792.75
2023-05-04T16:31:09.581Z,100812.41
2023-05-04T16:34:13.538Z,100800.22
2023-05-04T16:37:17.456Z,100791.59
2023-05-04T16:40:20.037Z,100783.69
2023-05-04T16:43:22.496Z,100793.50
2023-05-04T16:46:25.139Z,100813.53
2023-05-04T16:49:27.557Z,100804.09
2023-05-04T16:52:29.952Z,100817.06
2023-05-04T16:55:32.323Z,100799.75
2023-05-04T16:58:34.692Z,100817.03
2023-05-04T17:01:37.152Z,100815.06
2023-05-04T17:04:39.494Z,100785.19
2023-05-04T17:07:43.470Z,100815.44
2023-05-04T17:10:46.022Z,100818.94
2023-05-04T17:13:48.428Z,100818.56
2023-05-04T17:16:50.958Z,100822.47
2023-05-04T17:19:53.351Z,100815.75
2023-05-04T17:22:58.605Z,100816.94
2023-05-04T17:26:01.956Z,100839.75
2023-05-04T17:29:04.513Z,100841.28
2023-05-04T17:32:08.212Z,100828.28
2023-05-04T17:35:21.136Z,100838.91
2023-05-04T17:38:27.951Z,100834.94
2023-05-04T17:41:31.310Z,100862.84
2023-05-04T17:44:33.747Z,100834.13
2023-05-04T17:47:36.120Z,100856.50
2023-05-04T17:50:40.176Z,100843.88
2023-05-04T17:53:42.548Z,100843.81
2023-05-04T17:56:44.896Z,100881.19
2023-05-04T17:59:47.287Z,100849.28
2023-05-04T18:02:49.899Z,100881.97
2023-05-04T18:05:52.302Z,100863.81
2023-05-04T18:08:54.636Z,100834.31
2023-05-04T18:11:57.146Z,100827.53
2023-05-04T18:14:59.501Z,100866.09
2023-05-04T18:18:02.061Z,100877.06
2023-05-04T18:21:04.777Z,100891.22
2023-05-04T18:24:07.532Z,100861.63
2023-05-04T18:27:09.881Z,100883.63
2023-05-04T18:30:12.440Z,100895.41
2023-05-04T18:33:14.942Z,100876.13
2023-05-04T18:36:17.326Z,100895.00
2023-05-04T18:39:20.348Z,100910.69
2023-05-04T18:42:23.198Z,100907.09
2023-05-04T18:45:25.557Z,100904.25
2023-05-04T18:48:28.166Z,100922.41
2023-05-04T18:51:31.135Z,100901.91
2023-05-04T18:54:33.752Z,100916.38
2023-05-04T18:57:36.499Z,100914.38
2023-05-04T19:00:38.911Z,100932.50
2023-05-04T19:03:41.588Z,100910.03
2023-05-04T19:06:44.234Z,100926.94
2023-05-04T19:09:46.772Z,100925.31
2023-05-04T19:12:50.767Z,100924.88
2023-05-04T19:15:53.253Z,100930.72
2023-05-04T19:18:55.852Z,100936.66
2023-05-04T19:21:58.675Z,100926.72
2023-05-04T19:25:01.170Z,100931.09
2023-05-04T19:28:08.735Z,100973.59
2023-05-04T19:31:11.441Z,100932.19
2023-05-04T19:34:15.586Z,100931.75
2023-05-04T19:37:20.438Z,100949.88
2023-05-04T19:40:23.093Z,100941.53
2023-05-04T19:43:25.477Z,100946.25
2023-05-04T19:46:29.778Z,100936.78
2023-05-04T19:49:32.723Z,100935.16
2023-05-04T19:52:36.278Z,100955.25
2023-05-04T19:55:38.861Z,100961.50
2023-05-04T19:58:41.656Z,100987.53
2023-05-04T20:01:44.035Z,100930.34
2023-05-04T20:04:46.434Z,100936.53
2023-05-04T20:07:48.900Z,100951.59
2023-05-04T20:10:51.323Z,100938.19
2023-05-04T20:13:55.632Z,100946.03
2023-05-04T20:16:58.373Z,100970.41
2023-05-04T20:20:02.555Z,100965.25
2023-05-04T20:23:05.008Z,100960.88
2023-05-04T20:26:07.549Z,100972.69
2023-05-04T20:29:09.976Z,100967.91
2023-05-04T20:32:12.495Z,100971.69
2023-05-04T20:35:15.347Z,101004.75
2023-05-04T20:38:17.700Z,101006.34
2023-05-04T20:41:21.720Z,101014.19
2023-05-04T20:44:24.572Z,101001.03
2023-05-04T20:47:26.984Z,100985.63
2023-05-04T20:50:29.682Z,100995.50
2023-05-04T20:53:36.436Z,100968.34
2023-05-04T20:56:38.834Z,100987.59
2023-05-04T20:59:41.256Z,101009.38
2023-05-04T21:02:43.821Z,101029.47
2023-05-04T21:05:46.283Z,100975.81
2023-05-04T21:08:49.426Z,100999.81
2023-05-04T21:11:52.656Z,101001.03
2023-05-04T21:14:55.052Z,100986.41
2023-05-04T21:17:57.511Z,100987.56
2023-05-04T21:20:59.938Z,100998.97
2023-05-04T21:24:02.411Z,100986.03
2023-05-04T21:27:04.877Z,100997.03
2023-05-04T21:30:09.864Z,101004.56
2023-05-04T21:33:12.591Z,101035.28
2023-05-04T21:36:16.147Z,101007.25
2023-05-04T21:39:18.606Z,101005.28
2023-05-04T21:42:20.989Z,101000.97
2023-05-04T21:45:23.696Z,101006.47
2023-05-04T21:48:26.118Z,100992.72
2023-05-04T21:51:28.766Z,101012.78
2023-05-04T21:54:31.355Z,101017.81
2023-05-04T21:57:33.799Z,100983.19
2023-05-04T22:00:36.803Z,101041.53
2023-05-04T22:03:39.299Z,101008.34
2023-05-04T22:06:41.801Z,101021.72
2023-05-04T22:09:44.146Z,101008.31
2023-05-04T22:12:46.639Z,101000.09
2023-05-04T22:15:50.277Z,101019.41
2023-05-04T22:18:53.235Z,101022.88
2023-05-04T22:21:55.662Z,101033.94
2023-05-04T22:24:58.036Z,101011.09
2023-05-04T22:28:00.568Z,101045.03
2023-05-04T22:31:02.972Z,100996.16
2023-05-04T22:34:05.475Z,101015.72
2023-05-04T22:37:07.892Z,101016.94
2023-05-04T22:40:10.675Z,101005.09
2023-05-04T22:43:13.089Z,101012.22
2023-05-04T22:46:17.059Z,101001.94
2023-05-04T22:49:19.907Z,101010.25
2023-05-04T22:52:23.162Z,100998.06
2023-05-04T22:55:25.693Z,101001.25
2023-05-04T22:58:28.172Z,101002.84
2023-05-04T23:01:30.995Z,100999.31
2023-05-04T23:04:33.832Z,101024.28
2023-05-04T23:07:36.277Z,100991.09
2023-05-04T23:10:38.646Z,100990.66
2023-05-04T23:13:41.828Z,100999.78
2023-05-04T23:16:44.299Z,100988.34
2023-05-04T23:19:46.783Z,100995.03
2023-05-04T23:22:49.202Z,100992.66
2023-05-04T23:25:51.610Z,100996.19
2023-05-04T23:28:54.024Z,100989.88
2023-05-04T23:31:56.716Z,100982.31
2023-05-04T23:34:59.143Z,101010.72
2023-05-04T23:38:01.565Z,100994.91
2023-05-04T23:41:04.563Z,100988.78
2023-05-04T23:44:07.011Z,100991.84
2023-05-04T23:47:09.443Z,100998.47
2023-05-04T23:50:12.489Z,100998.88
2023-05-04T23:53:15.260Z,100995.72
2023-05-04T23:56:17.657Z,101016.25
2023-05-04T23:59:20.023Z,101016.25
